sensor_id;sensor_type;location;lat;lon;timestamp;pressure;altitude;pressure_sealevel;temperature
10058;BMP180;5068;51.286;7.518;2023-03-01T00:00:52;100653.00;;;0.60
10058;BMP180;5068;51.286;7.518;2023-03-01T00:02:25;100651.00;;;0.60
10058;BMP180;5068;51.286;7.518;2023-03-01T00:03:59;100649.00;;;0.50
10058;BMP180;5068;51.286;7.518;2023-03-01T00:05:33;100645.00;;;0.50
10058;BMP180;5068;51.286;7.518;2023-03-01T00:07:06;100644.00;;;0.50
10058;BMP180;5068;51.286;7.518;2023-03-01T00:08:40;100645.00;;;0.50
10058;BMP180;5068;51.286;7.518;2023-03-01T00:10:13;100649.00;;;0.40
10058;BMP180;5068;51.286;7.518;2023-03-01T00:11:47;100660.00;;;0.40
10058;BMP180;5068;51.286;7.518;2023-03-01T00:13:21;100655.00;;;0.40
10058;BMP180;5068;51.286;7.518;2023-03-01T00:14:54;100665.00;;;0.40
10058;BMP180;5068;51.286;7.518;2023-03-01T00:16:31;100657.00;;;0.30
10058;BMP180;5068;51.286;7.518;2023-03-01T00:18:05;100660.00;;;0.30
10058;BMP180;5068;51.286;7.518;2023-03-01T00:19:39;100664.00;;;0.30
10058;BMP180;5068;51.286;7.518;2023-03-01T00:21:12;100662.00;;;0.30
10058;BMP180;5068;51.286;7.518;2023-03-01T00:22:46;100643.00;;;0.30
10058;BMP180;5068;51.286;7.518;2023-03-01T00:24:19;100642.00;;;0.30
10058;BMP180;5068;51.286;7.518;2023-03-01T00:25:53;100642.00;;;0.20
10058;BMP180;5068;51.286;7.518;2023-03-01T00:27:26;100638.00;;;0.20
10058;BMP180;5068;51.286;7.518;2023-03-01T00:28:59;100637.00;;;0.20
10058;BMP180;5068;51.286;7.518;2023-03-01T00:30:33;100629.00;;;0.20
10058;BMP180;5068;51.286;7.518;2023-03-01T00:32:06;100628.00;;;0.20
10058;BMP180;5068;51.286;7.518;2023-03-01T00:33:40;100643.00;;;0.20
10058;BMP180;5068;51.286;7.518;2023-03-01T00:35:12;100631.00;;;0.10
10058;BMP180;5068;51.286;7.518;2023-03-01T00:36:46;100625.00;;;0.10
10058;BMP180;5068;51.286;7.518;2023-03-01T00:38:21;100633.00;;;0.10
10058;BMP180;5068;51.286;7.518;2023-03-01T00:39:54;100624.00;;;0.10
10058;BMP180;5068;51.286;7.518;2023-03-01T00:41:27;100627.00;;;0.10
10058;BMP180;5068;51.286;7.518;2023-03-01T00:43:01;100626.00;;;0.00
10058;BMP180;5068;51.286;7.518;2023-03-01T00:44:34;100629.00;;;0.00
10058;BMP180;5068;51.286;7.518;2023-03-01T00:46:12;100641.00;;;0.00
10058;BMP180;5068;51.286;7.518;2023-03-01T00:47:44;100628.00;;;0.00
10058;BMP180;5068;51.286;7.518;2023-03-01T00:49:17;100632.00;;;0.00
10058;BMP180;5068;51.286;7.518;2023-03-01T00:50:51;100632.00;;;0.10
10058;BMP180;5068;51.286;7.518;2023-03-01T00:52:23;100630.00;;;0.00
10058;BMP180;5068;51.286;7.518;2023-03-01T00:54:01;100630.00;;;0.00
10058;BMP180;5068;51.286;7.518;2023-03-01T00:55:36;100625.00;;;0.00
10058;BMP180;5068;51.286;7.518;2023-03-01T00:57:10;100615.00;;;0.00
10058;BMP180;5068;51.286;7.518;2023-03-01T00:58:43;100611.00;;;0.00
10058;BMP180;5068;51.286;7.518;2023-03-01T01:00:19;100625.00;;;-0.10
10058;BMP180;5068;51.286;7.518;2023-03-01T01:01:53;100617.00;;;-0.10
10058;BMP180;5068;51.286;7.518;2023-03-01T01:03:27;100620.00;;;-0.10
10058;BMP180;5068;51.286;7.518;2023-03-01T01:05:00;100621.00;;;-0.10
10058;BMP180;5068;51.286;7.518;2023-03-01T01:06:36;100617.00;;;-0.10
10058;BMP180;5068;51.286;7.518;2023-03-01T01:08:10;100617.00;;;-0.10
10058;BMP180;5068;51.286;7.518;2023-03-01T01:09:44;100611.00;;;-0.10
10058;BMP180;5068;51.286;7.518;2023-03-01T01:11:19;100622.00;;;-0.20
10058;BMP180;5068;51.286;7.518;2023-03-01T01:12:52;100618.00;;;-0.20
10058;BMP180;5068;51.286;7.518;2023-03-01T01:14:25;100611.00;;;-0.20
10058;BMP180;5068;51.286;7.518;2023-03-01T01:16:00;100616.00;;;-0.20
10058;BMP180;5068;51.286;7.518;2023-03-01T01:17:33;100605.00;;;-0.30
10058;BMP180;5068;51.286;7.518;2023-03-01T01:19:06;100614.00;;;-0.30
10058;BMP180;5068;51.286;7.518;2023-03-01T01:20:40;100595.00;;;-0.30
10058;BMP180;5068;51.286;7.518;2023-03-01T01:22:13;100602.00;;;-0.30
10058;BMP180;5068;51.286;7.518;2023-03-01T01:23:47;100601.00;;;-0.30
10058;BMP180;5068;51.286;7.518;2023-03-01T01:25:22;100592.00;;;-0.40
10058;BMP180;5068;51.286;7.518;2023-03-01T01:26:57;100603.00;;;-0.40
10058;BMP180;5068;51.286;7.518;2023-03-01T01:28:31;100592.00;;;-0.40
10058;BMP180;5068;51.286;7.518;2023-03-01T01:30:05;100592.00;;;-0.50
10058;BMP180;5068;51.286;7.518;2023-03-01T01:31:40;100580.00;;;-0.50
10058;BMP180;5068;51.286;7.518;2023-03-01T01:33:14;100577.00;;;-0.50
10058;BMP180;5068;51.286;7.518;2023-03-01T01:34:47;100587.00;;;-0.50
10058;BMP180;5068;51.286;7.518;2023-03-01T01:36:21;100580.00;;;-0.50
10058;BMP180;5068;51.286;7.518;2023-03-01T01:37:54;100571.00;;;-0.60
10058;BMP180;5068;51.286;7.518;2023-03-01T01:39:26;100577.00;;;-0.60
10058;BMP180;5068;51.286;7.518;2023-03-01T01:41:01;100569.00;;;-0.60
10058;BMP180;5068;51.286;7.518;2023-03-01T01:42:34;100578.00;;;-0.60
10058;BMP180;5068;51.286;7.518;2023-03-01T01:44:18;100587.00;;;-0.60
10058;BMP180;5068;51.286;7.518;2023-03-01T01:45:55;100577.00;;;-0.60
10058;BMP180;5068;51.286;7.518;2023-03-01T01:47:33;100568.00;;;-0.60
10058;BMP180;5068;51.286;7.518;2023-03-01T01:49:14;100565.00;;;-0.60
10058;BMP180;5068;51.286;7.518;2023-03-01T01:50:57;100568.00;;;-0.60
10058;BMP180;5068;51.286;7.518;2023-03-01T01:52:35;100571.00;;;-0.70
10058;BMP180;5068;51.286;7.518;2023-03-01T01:54:16;100588.00;;;-0.70
10058;BMP180;5068;51.286;7.518;2023-03-01T01:55:56;100568.00;;;-0.70
10058;BMP180;5068;51.286;7.518;2023-03-01T01:57:37;100570.00;;;-0.70
10058;BMP180;5068;51.286;7.518;2023-03-01T01:59:12;100570.00;;;-0.70
10058;BMP180;5068;51.286;7.518;2023-03-01T02:00:48;100574.00;;;-0.70
10058;BMP180;5068;51.286;7.518;2023-03-01T02:02:22;100590.00;;;-0.70
10058;BMP180;5068;51.286;7.518;2023-03-01T02:03:56;100587.00;;;-0.70
10058;BMP180;5068;51.286;7.518;2023-03-01T02:05:42;100577.00;;;-0.70
10058;BMP180;5068;51.286;7.518;2023-03-01T02:07:23;100579.00;;;-0.70
10058;BMP180;5068;51.286;7.518;2023-03-01T02:09:05;100576.00;;;-0.70
10058;BMP180;5068;51.286;7.518;2023-03-01T02:10:41;100574.00;;;-0.70
10058;BMP180;5068;51.286;7.518;2023-03-01T02:12:18;100567.00;;;-0.70
10058;BMP180;5068;51.286;7.518;2023-03-01T02:13:55;100573.00;;;-0.80
10058;BMP180;5068;51.286;7.518;2023-03-01T02:15:32;100570.00;;;-0.80
10058;BMP180;5068;51.286;7.518;2023-03-01T02:17:05;100583.00;;;-0.80
10058;BMP180;5068;51.286;7.518;2023-03-01T02:18:41;100580.00;;;-0.80
10058;BMP180;5068;51.286;7.518;2023-03-01T02:20:23;100571.00;;;-0.80
10058;BMP180;5068;51.286;7.518;2023-03-01T02:22:07;100572.00;;;-0.90
10058;BMP180;5068;51.286;7.518;2023-03-01T02:23:44;100571.00;;;-0.90
10058;BMP180;5068;51.286;7.518;2023-03-01T02:25:31;100570.00;;;-1.00
10058;BMP180;5068;51.286;7.518;2023-03-01T02:27:09;100556.00;;;-1.00
10058;BMP180;5068;51.286;7.518;2023-03-01T02:28:44;100561.00;;;-1.00
10058;BMP180;5068;51.286;7.518;2023-03-01T02:30:19;100559.00;;;-1.10
10058;BMP180;5068;51.286;7.518;2023-03-01T02:31:56;100548.00;;;-1.10
10058;BMP180;5068;51.286;7.518;2023-03-01T02:33:33;100545.00;;;-1.10
10058;BMP180;5068;51.286;7.518;2023-03-01T02:35:13;100552.00;;;-1.10
10058;BMP180;5068;51.286;7.518;2023-03-01T02:36:52;100560.00;;;-1.10
10058;BMP180;5068;51.286;7.518;2023-03-01T02:38:26;100554.00;;;-1.10
10058;BMP180;5068;51.286;7.518;2023-03-01T02:40:06;100554.00;;;-1.10
10058;BMP180;5068;51.286;7.518;2023-03-01T02:41:48;100565.00;;;-1.10
10058;BMP180;5068;51.286;7.518;2023-03-01T02:43:27;100559.00;;;-1.10
10058;BMP180;5068;51.286;7.518;2023-03-01T02:45:03;100549.00;;;-1.10
10058;BMP180;5068;51.286;7.518;2023-03-01T02:46:43;100555.00;;;-1.20
10058;BMP180;5068;51.286;7.518;2023-03-01T02:48:17;100551.00;;;-1.20
10058;BMP180;5068;51.286;7.518;2023-03-01T02:49:49;100549.00;;;-1.20
10058;BMP180;5068;51.286;7.518;2023-03-01T02:51:42;100550.00;;;-1.20
10058;BMP180;5068;51.286;7.518;2023-03-01T02:53:27;100544.00;;;-1.20
10058;BMP180;5068;51.286;7.518;2023-03-01T02:55:07;100550.00;;;-1.20
10058;BMP180;5068;51.286;7.518;2023-03-01T02:56:44;100545.00;;;-1.30
10058;BMP180;5068;51.286;7.518;2023-03-01T02:58:22;100551.00;;;-1.30
10058;BMP180;5068;51.286;7.518;2023-03-01T02:59:59;100556.00;;;-1.30
10058;BMP180;5068;51.286;7.518;2023-03-01T03:01:36;100553.00;;;-1.30
10058;BMP180;5068;51.286;7.518;2023-03-01T03:03:15;100543.00;;;-1.30
10058;BMP180;5068;51.286;7.518;2023-03-01T03:04:50;100552.00;;;-1.30
10058;BMP180;5068;51.286;7.518;2023-03-01T03:06:24;100546.00;;;-1.40
10058;BMP180;5068;51.286;7.518;2023-03-01T03:08:01;100543.00;;;-1.40
10058;BMP180;5068;51.286;7.518;2023-03-01T03:09:40;100545.00;;;-1.40
10058;BMP180;5068;51.286;7.518;2023-03-01T03:11:15;100546.00;;;-1.40
10058;BMP180;5068;51.286;7.518;2023-03-01T03:12:51;100539.00;;;-1.40
10058;BMP180;5068;51.286;7.518;2023-03-01T03:14:27;100543.00;;;-1.40
10058;BMP180;5068;51.286;7.518;2023-03-01T03:16:02;100536.00;;;-1.40
10058;BMP180;5068;51.286;7.518;2023-03-01T03:17:43;100529.00;;;-1.40
10058;BMP180;5068;51.286;7.518;2023-03-01T03:19:19;100524.00;;;-1.50
10058;BMP180;5068;51.286;7.518;2023-03-01T03:20:54;100530.00;;;-1.50
10058;BMP180;5068;51.286;7.518;2023-03-01T03:22:28;100535.00;;;-1.60
10058;BMP180;5068;51.286;7.518;2023-03-01T03:24:03;100532.00;;;-1.60
10058;BMP180;5068;51.286;7.518;2023-03-01T03:25:37;100540.00;;;-1.60
10058;BMP180;5068;51.286;7.518;2023-03-01T03:27:11;100537.00;;;-1.60
10058;BMP180;5068;51.286;7.518;2023-03-01T03:28:45;100530.00;;;-1.70
10058;BMP180;5068;51.286;7.518;2023-03-01T03:30:20;100532.00;;;-1.70
10058;BMP180;5068;51.286;7.518;2023-03-01T03:31:57;100532.00;;;-1.70
10058;BMP180;5068;51.286;7.518;2023-03-01T03:33:32;100540.00;;;-1.70
10058;BMP180;5068;51.286;7.518;2023-03-01T03:35:09;100543.00;;;-1.80
10058;BMP180;5068;51.286;7.518;2023-03-01T03:36:43;100539.00;;;-1.80
10058;BMP180;5068;51.286;7.518;2023-03-01T03:38:19;100539.00;;;-1.80
10058;BMP180;5068;51.286;7.518;2023-03-01T03:39:54;100530.00;;;-1.80
10058;BMP180;5068;51.286;7.518;2023-03-01T03:41:28;100528.00;;;-1.80
10058;BMP180;5068;51.286;7.518;2023-03-01T03:43:03;100535.00;;;-1.80
10058;BMP180;5068;51.286;7.518;2023-03-01T03:44:36;100541.00;;;-1.80
10058;BMP180;5068;51.286;7.518;2023-03-01T03:46:11;100537.00;;;-1.80
10058;BMP180;5068;51.286;7.518;2023-03-01T03:47:44;100522.00;;;-1.80
10058;BMP180;5068;51.286;7.518;2023-03-01T03:49:20;100521.00;;;-1.90
10058;BMP180;5068;51.286;7.518;2023-03-01T03:50:56;100511.00;;;-1.80
10058;BMP180;5068;51.286;7.518;2023-03-01T03:52:29;100516.00;;;-1.90
10058;BMP180;5068;51.286;7.518;2023-03-01T03:54:03;100504.00;;;-1.90
10058;BMP180;5068;51.286;7.518;2023-03-01T03:55:37;100517.00;;;-1.90
10058;BMP180;5068;51.286;7.518;2023-03-01T03:57:11;100514.00;;;-1.90
10058;BMP180;5068;51.286;7.518;2023-03-01T03:58:45;100508.00;;;-1.90
10058;BMP180;5068;51.286;7.518;2023-03-01T04:00:22;100500.00;;;-1.90
10058;BMP180;5068;51.286;7.518;2023-03-01T04:01:56;100508.00;;;-1.90
10058;BMP180;5068;51.286;7.518;2023-03-01T04:03:31;100505.00;;;-1.90
10058;BMP180;5068;51.286;7.518;2023-03-01T04:05:12;100498.00;;;-1.90
10058;BMP180;5068;51.286;7.518;2023-03-01T04:06:46;100514.00;;;-1.90
10058;BMP180;5068;51.286;7.518;2023-03-01T04:08:22;100507.00;;;-1.90
10058;BMP180;5068;51.286;7.518;2023-03-01T04:09:57;100511.00;;;-1.90
10058;BMP180;5068;51.286;7.518;2023-03-01T04:11:30;100513.00;;;-1.90
10058;BMP180;5068;51.286;7.518;2023-03-01T04:13:04;100514.00;;;-1.90
10058;BMP180;5068;51.286;7.518;2023-03-01T04:14:38;100510.00;;;-1.90
10058;BMP180;5068;51.286;7.518;2023-03-01T04:16:12;100517.00;;;-1.90
10058;BMP180;5068;51.286;7.518;2023-03-01T04:17:46;100523.00;;;-1.90
10058;BMP180;5068;51.286;7.518;2023-03-01T04:19:19;100513.00;;;-1.90
10058;BMP180;5068;51.286;7.518;2023-03-01T04:20:55;100522.00;;;-1.90
10058;BMP180;5068;51.286;7.518;2023-03-01T04:22:29;100519.00;;;-1.90
10058;BMP180;5068;51.286;7.518;2023-03-01T04:24:05;100516.00;;;-1.90
10058;BMP180;5068;51.286;7.518;2023-03-01T04:25:41;100511.00;;;-1.90
10058;BMP180;5068;51.286;7.518;2023-03-01T04:27:14;100509.00;;;-2.00
10058;BMP180;5068;51.286;7.518;2023-03-01T04:28:48;100505.00;;;-2.00
10058;BMP180;5068;51.286;7.518;2023-03-01T04:30:23;100507.00;;;-2.00
10058;BMP180;5068;51.286;7.518;2023-03-01T04:31:58;100521.00;;;-2.00
10058;BMP180;5068;51.286;7.518;2023-03-01T04:33:32;100522.00;;;-2.00
10058;BMP180;5068;51.286;7.518;2023-03-01T04:35:05;100503.00;;;-2.10
10058;BMP180;5068;51.286;7.518;2023-03-01T04:36:41;100496.00;;;-2.10
10058;BMP180;5068;51.286;7.518;2023-03-01T04:38:20;100496.00;;;-2.10
10058;BMP180;5068;51.286;7.518;2023-03-01T04:39:53;100506.00;;;-2.10
10058;BMP180;5068;51.286;7.518;2023-03-01T04:41:27;100503.00;;;-2.20
10058;BMP180;5068;51.286;7.518;2023-03-01T04:43:02;100506.00;;;-2.20
10058;BMP180;5068;51.286;7.518;2023-03-01T04:44:35;100517.00;;;-2.10
10058;BMP180;5068;51.286;7.518;2023-03-01T04:46:12;100512.00;;;-2.10
10058;BMP180;5068;51.286;7.518;2023-03-01T04:47:47;100509.00;;;-2.10
10058;BMP180;5068;51.286;7.518;2023-03-01T04:49:21;100510.00;;;-2.10
10058;BMP180;5068;51.286;7.518;2023-03-01T04:50:55;100504.00;;;-2.20
10058;BMP180;5068;51.286;7.518;2023-03-01T04:52:30;100509.00;;;-2.20
10058;BMP180;5068;51.286;7.518;2023-03-01T04:54:05;100505.00;;;-2.20
10058;BMP180;5068;51.286;7.518;2023-03-01T04:55:41;100510.00;;;-2.20
10058;BMP180;5068;51.286;7.518;2023-03-01T04:57:15;100506.00;;;-2.20
10058;BMP180;5068;51.286;7.518;2023-03-01T04:58:49;100511.00;;;-2.20
10058;BMP180;5068;51.286;7.518;2023-03-01T05:00:24;100511.00;;;-2.20
10058;BMP180;5068;51.286;7.518;2023-03-01T05:01:57;100506.00;;;-2.30
10058;BMP180;5068;51.286;7.518;2023-03-01T05:03:32;100505.00;;;-2.30
10058;BMP180;5068;51.286;7.518;2023-03-01T05:05:07;100509.00;;;-2.30
10058;BMP180;5068;51.286;7.518;2023-03-01T05:06:41;100504.00;;;-2.30
10058;BMP180;5068;51.286;7.518;2023-03-01T05:08:17;100505.00;;;-2.30
10058;BMP180;5068;51.286;7.518;2023-03-01T05:09:51;100496.00;;;-2.30
10058;BMP180;5068;51.286;7.518;2023-03-01T05:11:26;100506.00;;;-2.40
10058;BMP180;5068;51.286;7.518;2023-03-01T05:13:04;100504.00;;;-2.40
10058;BMP180;5068;51.286;7.518;2023-03-01T05:14:39;100497.00;;;-2.40
10058;BMP180;5068;51.286;7.518;2023-03-01T05:16:13;100504.00;;;-2.40
10058;BMP180;5068;51.286;7.518;2023-03-01T05:17:48;100506.00;;;-2.40
10058;BMP180;5068;51.286;7.518;2023-03-01T05:19:21;100505.00;;;-2.40
10058;BMP180;5068;51.286;7.518;2023-03-01T05:21:03;100504.00;;;-2.40
10058;BMP180;5068;51.286;7.518;2023-03-01T05:22:37;100510.00;;;-2.40
10058;BMP180;5068;51.286;7.518;2023-03-01T05:24:12;100511.00;;;-2.40
10058;BMP180;5068;51.286;7.518;2023-03-01T05:25:47;100501.00;;;-2.50
10058;BMP180;5068;51.286;7.518;2023-03-01T05:27:21;100501.00;;;-2.50
10058;BMP180;5068;51.286;7.518;2023-03-01T05:28:54;100485.00;;;-2.50
10058;BMP180;5068;51.286;7.518;2023-03-01T05:30:32;100495.00;;;-2.50
10058;BMP180;5068;51.286;7.518;2023-03-01T05:32:06;100489.00;;;-2.50
10058;BMP180;5068;51.286;7.518;2023-03-01T05:33:41;100492.00;;;-2.50
10058;BMP180;5068;51.286;7.518;2023-03-01T05:35:17;100493.00;;;-2.50
10058;BMP180;5068;51.286;7.518;2023-03-01T05:36:52;100499.00;;;-2.50
10058;BMP180;5068;51.286;7.518;2023-03-01T05:38:26;100497.00;;;-2.60
10058;BMP180;5068;51.286;7.518;2023-03-01T05:40:02;100488.00;;;-2.60
10058;BMP180;5068;51.286;7.518;2023-03-01T05:41:38;100487.00;;;-2.60
10058;BMP180;5068;51.286;7.518;2023-03-01T05:43:15;100488.00;;;-2.60
10058;BMP180;5068;51.286;7.518;2023-03-01T05:44:50;100489.00;;;-2.60
10058;BMP180;5068;51.286;7.518;2023-03-01T05:46:24;100490.00;;;-2.60
10058;BMP180;5068;51.286;7.518;2023-03-01T05:47:58;100495.00;;;-2.60
10058;BMP180;5068;51.286;7.518;2023-03-01T05:49:32;100483.00;;;-2.70
10058;BMP180;5068;51.286;7.518;2023-03-01T05:51:08;100494.00;;;-2.70
10058;BMP180;5068;51.286;7.518;2023-03-01T05:52:42;100487.00;;;-2.70
10058;BMP180;5068;51.286;7.518;2023-03-01T05:54:16;100490.00;;;-2.70
10058;BMP180;5068;51.286;7.518;2023-03-01T05:55:51;100493.00;;;-2.70
10058;BMP180;5068;51.286;7.518;2023-03-01T05:57:27;100483.00;;;-2.70
10058;BMP180;5068;51.286;7.518;2023-03-01T05:59:04;100497.00;;;-2.70
10058;BMP180;5068;51.286;7.518;2023-03-01T06:00:38;100503.00;;;-2.80
10058;BMP180;5068;51.286;7.518;2023-03-01T06:02:12;100501.00;;;-2.80
10058;BMP180;5068;51.286;7.518;2023-03-01T06:03:46;100502.00;;;-2.80
10058;BMP180;5068;51.286;7.518;2023-03-01T06:05:20;100502.00;;;-2.80
10058;BMP180;5068;51.286;7.518;2023-03-01T06:06:54;100499.00;;;-2.90
10058;BMP180;5068;51.286;7.518;2023-03-01T06:08:32;100500.00;;;-2.80
10058;BMP180;5068;51.286;7.518;2023-03-01T06:10:08;100504.00;;;-2.90
10058;BMP180;5068;51.286;7.518;2023-03-01T06:11:45;100498.00;;;-2.90
10058;BMP180;5068;51.286;7.518;2023-03-01T06:13:18;100494.00;;;-2.90
10058;BMP180;5068;51.286;7.518;2023-03-01T06:14:52;100499.00;;;-2.90
10058;BMP180;5068;51.286;7.518;2023-03-01T06:16:24;100502.00;;;-3.00
10058;BMP180;5068;51.286;7.518;2023-03-01T06:17:57;100500.00;;;-2.90
10058;BMP180;5068;51.286;7.518;2023-03-01T06:19:31;100502.00;;;-2.90
10058;BMP180;5068;51.286;7.518;2023-03-01T06:21:05;100500.00;;;-2.90
10058;BMP180;5068;51.286;7.518;2023-03-01T06:22:38;100501.00;;;-3.00
10058;BMP180;5068;51.286;7.518;2023-03-01T06:24:11;100508.00;;;-3.00
10058;BMP180;5068;51.286;7.518;2023-03-01T06:25:44;100496.00;;;-3.00
10058;BMP180;5068;51.286;7.518;2023-03-01T06:27:17;100508.00;;;-3.00
10058;BMP180;5068;51.286;7.518;2023-03-01T06:28:51;100508.00;;;-2.90
10058;BMP180;5068;51.286;7.518;2023-03-01T06:30:26;100501.00;;;-2.90
10058;BMP180;5068;51.286;7.518;2023-03-01T06:31:59;100502.00;;;-2.90
10058;BMP180;5068;51.286;7.518;2023-03-01T06:33:31;100500.00;;;-2.90
10058;BMP180;5068;51.286;7.518;2023-03-01T06:35:05;100507.00;;;-2.90
10058;BMP180;5068;51.286;7.518;2023-03-01T06:36:38;100501.00;;;-2.90
10058;BMP180;5068;51.286;7.518;2023-03-01T06:38:12;100485.00;;;-2.90
10058;BMP180;5068;51.286;7.518;2023-03-01T06:39:46;100491.00;;;-2.90
10058;BMP180;5068;51.286;7.518;2023-03-01T06:41:19;100486.00;;;-2.90
10058;BMP180;5068;51.286;7.518;2023-03-01T06:42:54;100483.00;;;-2.90
10058;BMP180;5068;51.286;7.518;2023-03-01T06:44:27;100483.00;;;-2.90
10058;BMP180;5068;51.286;7.518;2023-03-01T06:46:04;100485.00;;;-2.90
10058;BMP180;5068;51.286;7.518;2023-03-01T06:47:38;100476.00;;;-2.90
10058;BMP180;5068;51.286;7.518;2023-03-01T06:49:11;100477.00;;;-2.90
10058;BMP180;5068;51.286;7.518;2023-03-01T06:50:45;100471.00;;;-2.90
10058;BMP180;5068;51.286;7.518;2023-03-01T06:52:18;100474.00;;;-2.90
10058;BMP180;5068;51.286;7.518;2023-03-01T06:53:51;100478.00;;;-2.90
10058;BMP180;5068;51.286;7.518;2023-03-01T06:55:24;100476.00;;;-2.90
10058;BMP180;5068;51.286;7.518;2023-03-01T06:56:58;100478.00;;;-2.90
10058;BMP180;5068;51.286;7.518;2023-03-01T06:58:32;100477.00;;;-2.90
10058;BMP180;5068;51.286;7.518;2023-03-01T07:00:08;100476.00;;;-2.90
10058;BMP180;5068;51.286;7.518;2023-03-01T07:01:41;100471.00;;;-2.90
10058;BMP180;5068;51.286;7.518;2023-03-01T07:03:15;100472.00;;;-2.90
10058;BMP180;5068;51.286;7.518;2023-03-01T07:04:49;100484.00;;;-2.80
10058;BMP180;5068;51.286;7.518;2023-03-01T07:06:23;100477.00;;;-2.80
10058;BMP180;5068;51.286;7.518;2023-03-01T07:07:56;100472.00;;;-2.80
10058;BMP180;5068;51.286;7.518;2023-03-01T07:09:30;100478.00;;;-2.80
10058;BMP180;5068;51.286;7.518;2023-03-01T07:11:03;100471.00;;;-2.80
10058;BMP180;5068;51.286;7.518;2023-03-01T07:12:40;100482.00;;;-2.80
10058;BMP180;5068;51.286;7.518;2023-03-01T07:14:15;100473.00;;;-2.80
10058;BMP180;5068;51.286;7.518;2023-03-01T07:15:48;100472.00;;;-2.80
10058;BMP180;5068;51.286;7.518;2023-03-01T07:17:22;100466.00;;;-2.70
10058;BMP180;5068;51.286;7.518;2023-03-01T07:18:55;100464.00;;;-2.70
10058;BMP180;5068;51.286;7.518;2023-03-01T07:20:31;100462.00;;;-2.70
10058;BMP180;5068;51.286;7.518;2023-03-01T07:22:04;100462.00;;;-2.70
10058;BMP180;5068;51.286;7.518;2023-03-01T07:23:39;100465.00;;;-2.70
10058;BMP180;5068;51.286;7.518;2023-03-01T07:25:12;100461.00;;;-2.70
10058;BMP180;5068;51.286;7.518;2023-03-01T07:26:48;100454.00;;;-2.70
10058;BMP180;5068;51.286;7.518;2023-03-01T07:28:23;100450.00;;;-2.70
10058;BMP180;5068;51.286;7.518;2023-03-01T07:29:57;100457.00;;;-2.70
10058;BMP180;5068;51.286;7.518;2023-03-01T07:31:31;100450.00;;;-2.60
10058;BMP180;5068;51.286;7.518;2023-03-01T07:33:04;100454.00;;;-2.60
10058;BMP180;5068;51.286;7.518;2023-03-01T07:34:38;100456.00;;;-2.60
10058;BMP180;5068;51.286;7.518;2023-03-01T07:36:14;100449.00;;;-2.60
10058;BMP180;5068;51.286;7.518;2023-03-01T07:37:47;100445.00;;;-2.60
10058;BMP180;5068;51.286;7.518;2023-03-01T07:39:21;100448.00;;;-2.60
10058;BMP180;5068;51.286;7.518;2023-03-01T07:40:59;100440.00;;;-2.60
10058;BMP180;5068;51.286;7.518;2023-03-01T07:42:33;100432.00;;;-2.50
10058;BMP180;5068;51.286;7.518;2023-03-01T07:44:06;100440.00;;;-2.50
10058;BMP180;5068;51.286;7.518;2023-03-01T07:45:40;100438.00;;;-2.50
10058;BMP180;5068;51.286;7.518;2023-03-01T07:47:14;100441.00;;;-2.50
10058;BMP180;5068;51.286;7.518;2023-03-01T07:48:47;100444.00;;;-2.40
10058;BMP180;5068;51.286;7.518;2023-03-01T07:50:22;100439.00;;;-2.40
10058;BMP180;5068;51.286;7.518;2023-03-01T07:51:55;100438.00;;;-2.40
10058;BMP180;5068;51.286;7.518;2023-03-01T07:53:28;100436.00;;;-2.40
10058;BMP180;5068;51.286;7.518;2023-03-01T07:55:03;100447.00;;;-2.40
10058;BMP180;5068;51.286;7.518;2023-03-01T07:56:36;100447.00;;;-2.40
10058;BMP180;5068;51.286;7.518;2023-03-01T07:58:10;100434.00;;;-2.30
10058;BMP180;5068;51.286;7.518;2023-03-01T07:59:43;100452.00;;;-2.30
10058;BMP180;5068;51.286;7.518;2023-03-01T08:01:20;100448.00;;;-2.30
10058;BMP180;5068;51.286;7.518;2023-03-01T08:02:54;100450.00;;;-2.20
10058;BMP180;5068;51.286;7.518;2023-03-01T08:04:27;100457.00;;;-2.20
10058;BMP180;5068;51.286;7.518;2023-03-01T08:06:02;100452.00;;;-2.10
10058;BMP180;5068;51.286;7.518;2023-03-01T08:07:35;100450.00;;;-2.10
10058;BMP180;5068;51.286;7.518;2023-03-01T08:09:08;100435.00;;;-2.00
10058;BMP180;5068;51.286;7.518;2023-03-01T08:10:41;100442.00;;;-1.90
10058;BMP180;5068;51.286;7.518;2023-03-01T08:12:15;100445.00;;;-1.90
10058;BMP180;5068;51.286;7.518;2023-03-01T08:13:48;100445.00;;;-1.80
10058;BMP180;5068;51.286;7.518;2023-03-01T08:15:24;100450.00;;;-1.80
10058;BMP180;5068;51.286;7.518;2023-03-01T08:16:58;100442.00;;;-1.70
10058;BMP180;5068;51.286;7.518;2023-03-01T08:18:32;100436.00;;;-1.70
10058;BMP180;5068;51.286;7.518;2023-03-01T08:20:06;100435.00;;;-1.70
10058;BMP180;5068;51.286;7.518;2023-03-01T08:21:40;100444.00;;;-1.60
10058;BMP180;5068;51.286;7.518;2023-03-01T08:23:13;100436.00;;;-1.60
10058;BMP180;5068;51.286;7.518;2023-03-01T08:24:46;100431.00;;;-1.50
10058;BMP180;5068;51.286;7.518;2023-03-01T08:26:21;100424.00;;;-1.40
10058;BMP180;5068;51.286;7.518;2023-03-01T08:27:54;100425.00;;;-1.40
10058;BMP180;5068;51.286;7.518;2023-03-01T08:29:27;100417.00;;;-1.30
10058;BMP180;5068;51.286;7.518;2023-03-01T08:31:00;100427.00;;;-1.20
10058;BMP180;5068;51.286;7.518;2023-03-01T08:32:37;100421.00;;;-1.00
10058;BMP180;5068;51.286;7.518;2023-03-01T08:34:14;100415.00;;;-0.90
10058;BMP180;5068;51.286;7.518;2023-03-01T08:35:48;100431.00;;;-0.80
10058;BMP180;5068;51.286;7.518;2023-03-01T08:37:21;100414.00;;;-0.70
10058;BMP180;5068;51.286;7.518;2023-03-01T08:38:54;100410.00;;;-0.60
10058;BMP180;5068;51.286;7.518;2023-03-01T08:40:28;100419.00;;;-0.50
10058;BMP180;5068;51.286;7.518;2023-03-01T08:42:01;100405.00;;;-0.40
10058;BMP180;5068;51.286;7.518;2023-03-01T08:43:34;100418.00;;;-0.30
10058;BMP180;5068;51.286;7.518;2023-03-01T08:45:09;100420.00;;;-0.20
10058;BMP180;5068;51.286;7.518;2023-03-01T08:46:43;100417.00;;;-0.10
10058;BMP180;5068;51.286;7.518;2023-03-01T08:48:18;100420.00;;;0.00
10058;BMP180;5068;51.286;7.518;2023-03-01T08:49:51;100412.00;;;0.10
10058;BMP180;5068;51.286;7.518;2023-03-01T08:51:26;100403.00;;;0.20
10058;BMP180;5068;51.286;7.518;2023-03-01T08:53:00;100413.00;;;0.30
10058;BMP180;5068;51.286;7.518;2023-03-01T08:54:34;100399.00;;;0.40
10058;BMP180;5068;51.286;7.518;2023-03-01T08:56:08;100409.00;;;0.50
10058;BMP180;5068;51.286;7.518;2023-03-01T08:57:41;100400.00;;;0.50
10058;BMP180;5068;51.286;7.518;2023-03-01T08:59:16;100406.00;;;0.60
10058;BMP180;5068;51.286;7.518;2023-03-01T09:00:50;100401.00;;;0.80
10058;BMP180;5068;51.286;7.518;2023-03-01T09:02:23;100407.00;;;0.80
10058;BMP180;5068;51.286;7.518;2023-03-01T09:03:57;100408.00;;;0.90
10058;BMP180;5068;51.286;7.518;2023-03-01T09:05:31;100410.00;;;1.00
10058;BMP180;5068;51.286;7.518;2023-03-01T09:07:05;100416.00;;;1.10
10058;BMP180;5068;51.286;7.518;2023-03-01T09:08:41;100419.00;;;1.20